Hauptseite
METAR-TAF:

METAR-TAF

Flughäfen :

Flughafen Bern-Belp

Bern, Schweiz

Breite: 46-55N, Länge: 007-30E, Höhe: 505 m

Beobachtung

Neuester Wetterbericht von vor 38 Minuten, um 03:20 UTC
Wind 1 kt aus unterschiedlichen Richtungen
Temperatur 6°C
Luftfeuchtigkeit 93%
Luftdruck 1018 hPa
Sichtweite 10 km oder mehr
keine Wolken unter 1500 m und keine Kumulonimbus oder Gewitterwolken

METAR: LSZB 160320Z AUTO VRB01KT CAVOK 06/05 Q1018

Zeit: 05:58 (03:58 UTC)

Prognose

Neuester Wetterbericht von vor 1 Stunde und 33 Minuten, um 02:25 UTC
Gültige Prognose vom 16 um 03 UTC bis 16 um 12 UTC
Wind 3 kt aus unterschiedlichen Richtungen
Sichtweite 10 km oder mehr
keine Wolken unter 1500 m und keine Kumulonimbus oder Gewitterwolken

TAF: LSZB 160225Z 1603/1612 VRB03KT CAVOK

Wetterbeobachtungen und Prognosen von mehr als 4000 Flughäfen (METAR und TAF Bericht).

Die verfügbaren Stationen werden durch gelbe und rote Markierungen auf der Karte dargestellt.

Führen Sie die Maus auf sie, um den Namen der Station zu sehen.

Darauf klicken, um die Beobachtung von Wetterbeobachtungen und Prognosen zu sehen.

Um die Karte zu ändern : klicken Sie auf den grünen Tasten mit einem schwarzen Kreuz Zum Vergrößern, auf den grünen Button mit einem Gedankenstrich zu verkleinern, oder auf die grünen Pfeile für benachbarte Karten.


METAR-TAF: